Lobo

Go HERE for most recent data if this page is not up to date.

Jump to table bottom
Date/Time Temp deg F RH % 24 Hr Snow (in) Snow Depth (in) H2O (in)
07/03 07:00 45.6 58 0.3 0.9 0.00
07/03 06:00 45.3 61 0.2 0.6 0.00
07/03 05:00 47.5 56 0.0 0.4 0.00
07/03 04:00 49.3 49 0.1 0.5 0.00
07/03 03:00 46.4 52 0.3 0.8 0.00
07/03 02:00 47.7 51 0.2 0.5 0.00
07/03 01:00 47.9 46 0.2 0.6 0.00
07/03 00:00 48.7 46 0.2 0.5 0.00
07/02 23:00 51.0 37 0.2 0.6 0.00
07/02 22:00 51.4 36 0.2 0.6 0.00
07/02 21:00 52.5 35 0.2 0.6 0.00
07/02 20:00 53.2 35 0.0 0.4 0.00
07/02 19:00 54.4 31 0.0 0.2 0.00
07/02 18:00 55.1 28 -0.0 0.0 0.00
07/02 17:00 55.5 23 -0.0 -0.1 0.00
07/02 16:00 55.3 24 -0.2 -0.4 0.00
07/02 15:00 54.3 23 -0.2 -0.4 0.00
07/02 14:00 53.8 22 -0.2 -0.2 0.00
07/02 13:00 53.0 25 -0.0 0.0 0.00
07/02 12:00 51.6 23 0.0 0.4 0.00
07/02 11:00 49.5 18 -0.0 0.2 0.00
07/02 10:00 47.4 19 0.1 0.5 0.00
07/02 09:00 44.8 25 0.2 0.8 0.00
07/02 08:00 40.6 26 0.3 0.9 0.00
07/02 07:00 38.3 36 0.2 0.7 0.00
07/02 06:00 37.6 39 0.1 0.5 0.00
07/02 05:00 38.2 41 0.2 0.5 0.00
07/02 04:00 38.5 49 0.2 0.5 0.00
07/02 03:00 38.6 59 0.1 0.5 0.00
07/02 02:00 39.7 47 0.2 0.6 0.00
07/02 01:00 40.3 43 0.2 0.6 0.00
07/02 00:00 41.2 40 0.1 0.4 0.00
.